createdAt,value
2018-11-23T00:01:35.740Z,4.80
2018-11-23T00:04:25.655Z,4.80
2018-11-23T00:07:26.864Z,4.90
2018-11-23T00:10:17.580Z,4.80
2018-11-23T00:13:19.656Z,4.90
2018-11-23T00:16:09.126Z,4.90
2018-11-23T00:18:51.411Z,4.90
2018-11-23T00:21:41.132Z,4.80
2018-11-23T00:24:23.423Z,4.80
2018-11-23T00:27:12.898Z,4.70
2018-11-23T00:29:54.923Z,4.70
2018-11-23T00:32:24.988Z,4.70
2018-11-23T00:34:55.055Z,4.80
2018-11-23T00:37:44.945Z,5.00
2018-11-23T00:40:31.279Z,5.10
2018-11-23T00:43:01.769Z,5.10
2018-11-23T00:45:31.855Z,5.00
2018-11-23T00:48:01.964Z,5.00
2018-11-23T00:50:51.379Z,5.00
2018-11-23T00:53:21.589Z,4.90
2018-11-23T00:55:51.701Z,4.90
2018-11-23T00:58:39.966Z,4.90
2018-11-23T01:01:48.587Z,4.90
2018-11-23T01:04:51.499Z,4.90
2018-11-23T01:07:41.847Z,4.90
2018-11-23T01:10:24.722Z,4.90
2018-11-23T01:13:14.211Z,4.80
2018-11-23T01:15:56.471Z,4.80
2018-11-23T01:18:45.919Z,4.90
2018-11-23T01:21:28.011Z,4.90
2018-11-23T01:24:17.455Z,4.90
2018-11-23T01:26:59.703Z,4.90
2018-11-23T01:29:49.101Z,4.80
2018-11-23T01:32:31.765Z,4.80
2018-11-23T01:38:22.379Z,4.80
2018-11-23T01:41:04.947Z,4.90
2018-11-23T01:43:54.408Z,4.80
2018-11-23T01:46:37.115Z,4.80
2018-11-23T01:52:27.863Z,4.80
2018-11-23T01:55:10.490Z,4.70
2018-11-23T01:57:59.938Z,4.80
2018-11-23T02:00:42.320Z,4.80
2018-11-23T02:03:31.771Z,4.80
2018-11-23T02:09:01.063Z,4.80
2018-11-23T02:11:43.266Z,4.90
2018-11-23T02:14:32.715Z,5.00
2018-11-23T02:17:34.258Z,5.00
2018-11-23T02:20:23.876Z,4.90
2018-11-23T02:23:06.753Z,4.90
2018-11-23T02:25:56.312Z,4.80
2018-11-23T02:28:36.762Z,4.80
2018-11-23T02:31:45.502Z,4.80
2018-11-23T02:34:27.902Z,4.90
2018-11-23T02:37:17.360Z,4.80
2018-11-23T02:40:00.075Z,4.80
2018-11-23T02:42:49.495Z,4.80
2018-11-23T02:45:32.211Z,4.70
2018-11-23T02:48:21.663Z,4.80
2018-11-23T02:51:04.110Z,4.70
2018-11-23T02:53:53.549Z,4.70
2018-11-23T02:56:46.250Z,4.70
2018-11-23T02:59:35.695Z,4.70
2018-11-23T03:02:18.510Z,4.70
2018-11-23T03:05:09.127Z,4.70
2018-11-23T03:07:51.823Z,4.70
2018-11-23T03:10:41.272Z,4.70
2018-11-23T03:13:23.444Z,4.70
2018-11-23T03:16:12.891Z,4.70
2018-11-23T03:18:55.420Z,4.70
2018-11-23T03:21:44.882Z,4.70
2018-11-23T03:24:27.444Z,4.70
2018-11-23T03:27:16.867Z,4.70
2018-11-23T03:29:59.166Z,4.70
2018-11-23T03:32:49.368Z,4.70
2018-11-23T03:35:31.926Z,4.70
2018-11-23T03:38:21.375Z,4.60
2018-11-23T03:41:04.089Z,4.60
2018-11-23T03:43:53.543Z,4.60
2018-11-23T03:46:35.976Z,4.60
2018-11-23T03:49:25.423Z,4.60
2018-11-23T03:52:07.679Z,4.60
2018-11-23T03:54:57.147Z,4.60
2018-11-23T03:57:39.327Z,4.60
2018-11-23T04:00:28.786Z,4.60
2018-11-23T04:03:10.850Z,4.60
2018-11-23T04:06:00.291Z,4.60
2018-11-23T04:08:42.729Z,4.60
2018-11-23T04:11:32.184Z,4.70
2018-11-23T04:14:14.958Z,4.70
2018-11-23T04:17:04.426Z,4.60
2018-11-23T04:19:46.766Z,4.60
2018-11-23T04:22:36.237Z,4.60
2018-11-23T04:25:18.435Z,4.70
2018-11-23T04:28:00.400Z,4.70
2018-11-23T04:30:42.534Z,4.70
2018-11-23T04:33:31.991Z,4.70
2018-11-23T04:36:12.571Z,4.60
2018-11-23T04:42:03.543Z,4.60
2018-11-23T04:44:45.430Z,4.60
2018-11-23T04:47:34.911Z,4.50
2018-11-23T04:50:17.210Z,4.50
2018-11-23T04:53:06.649Z,4.50
2018-11-23T04:55:48.804Z,4.50
2018-11-23T04:58:39.100Z,4.60
2018-11-23T05:01:19.569Z,4.60
2018-11-23T05:04:08.994Z,4.60
2018-11-23T05:06:51.419Z,4.60
2018-11-23T05:09:40.864Z,4.60
2018-11-23T05:12:23.722Z,4.60
2018-11-23T05:15:14.407Z,4.70
2018-11-23T05:17:57.070Z,4.70
2018-11-23T05:20:46.505Z,4.70
2018-11-23T05:23:29.063Z,4.70
2018-11-23T05:26:11.501Z,4.60
2018-11-23T05:29:00.976Z,4.60
2018-11-23T05:31:43.315Z,4.70
2018-11-23T05:34:32.773Z,4.70
2018-11-23T05:37:15.063Z,4.70
2018-11-23T05:43:06.208Z,4.70
2018-11-23T05:45:48.755Z,4.60
2018-11-23T05:48:38.190Z,4.60
2018-11-23T05:51:20.940Z,4.60
2018-11-23T05:54:10.371Z,4.60
2018-11-23T05:56:52.446Z,4.60
2018-11-23T05:59:41.895Z,4.60
2018-11-23T06:02:22.332Z,4.60
2018-11-23T06:05:11.780Z,4.70
2018-11-23T06:07:53.806Z,4.70
2018-11-23T06:10:43.260Z,4.60
2018-11-23T06:13:25.098Z,4.60
2018-11-23T06:16:14.542Z,4.60
2018-11-23T06:18:57.276Z,4.60
2018-11-23T06:21:46.728Z,4.60
2018-11-23T06:24:32.122Z,4.70
2018-11-23T06:27:18.612Z,4.70
2018-11-23T06:30:00.982Z,4.70
2018-11-23T06:33:29.098Z,4.80
2018-11-23T06:36:11.368Z,4.80
2018-11-23T06:39:01.039Z,4.80
2018-11-23T06:41:42.974Z,4.70
2018-11-23T06:44:32.394Z,4.70
2018-11-23T06:47:14.574Z,4.70
2018-11-23T06:50:04.022Z,4.70
2018-11-23T06:52:46.611Z,4.70
2018-11-23T06:55:36.050Z,4.70
2018-11-23T06:58:18.547Z,4.80
2018-11-23T07:01:07.970Z,4.80
2018-11-23T07:03:57.437Z,4.90
2018-11-23T07:06:46.855Z,4.90
2018-11-23T07:09:29.022Z,5.00
2018-11-23T07:12:18.449Z,5.10
2018-11-23T07:15:00.398Z,5.30
2018-11-23T07:17:49.835Z,5.40
2018-11-23T07:20:32.221Z,5.40
2018-11-23T07:23:14.130Z,5.50
2018-11-23T07:26:03.574Z,5.60
2018-11-23T07:28:46.000Z,5.50
2018-11-23T07:31:35.481Z,5.50
2018-11-23T07:34:17.840Z,5.70
2018-11-23T07:37:07.289Z,5.60
2018-11-23T07:40:09.139Z,5.50
2018-11-23T07:42:58.804Z,5.50
2018-11-23T07:45:41.151Z,5.40
2018-11-23T07:48:30.570Z,5.40
2018-11-23T07:51:12.514Z,5.50
2018-11-23T07:54:02.749Z,5.50
2018-11-23T07:56:45.161Z,5.50
2018-11-23T07:59:34.998Z,5.50
2018-11-23T08:02:17.366Z,5.50
2018-11-23T08:05:08.639Z,5.50
2018-11-23T08:07:50.713Z,5.50
2018-11-23T08:10:39.281Z,5.50
2018-11-23T08:13:21.822Z,5.50
2018-11-23T08:16:11.273Z,5.50
2018-11-23T08:18:53.783Z,5.60
2018-11-23T08:21:43.226Z,5.50
2018-11-23T08:24:25.804Z,5.60
2018-11-23T08:27:15.240Z,5.60
2018-11-23T08:29:57.494Z,5.60
2018-11-23T08:32:46.943Z,5.60
2018-11-23T08:35:28.874Z,5.70
2018-11-23T08:38:18.303Z,5.70
2018-11-23T08:41:00.310Z,5.70
2018-11-23T08:43:50.183Z,5.70
2018-11-23T08:46:32.086Z,5.80
2018-11-23T08:49:21.511Z,5.90
2018-11-23T08:52:03.575Z,5.90
2018-11-23T08:54:58.539Z,5.90
2018-11-23T08:57:41.260Z,5.90
2018-11-23T09:00:31.068Z,6.00
2018-11-23T09:03:13.882Z,6.10
2018-11-23T09:06:03.653Z,6.20
2018-11-23T09:08:45.715Z,6.30
2018-11-23T09:11:35.154Z,6.30
2018-11-23T09:14:17.468Z,6.30
2018-11-23T09:17:06.890Z,6.20
2018-11-23T09:19:47.438Z,6.20
2018-11-23T09:22:36.878Z,6.30
2018-11-23T09:25:20.842Z,6.30
2018-11-23T09:28:10.282Z,6.30
2018-11-23T09:30:52.174Z,6.30
2018-11-23T09:33:41.704Z,6.40
2018-11-23T09:36:24.501Z,6.40
2018-11-23T09:42:15.923Z,6.50
2018-11-23T09:44:58.468Z,6.60
2018-11-23T09:47:48.899Z,6.60
2018-11-23T09:50:31.346Z,6.60
2018-11-23T09:53:20.786Z,6.60
2018-11-23T09:56:03.189Z,6.60
2018-11-23T09:58:52.622Z,6.60
2018-11-23T10:01:33.117Z,6.60
2018-11-23T10:04:22.587Z,6.70
2018-11-23T10:07:05.286Z,6.70
2018-11-23T10:09:54.785Z,6.80
2018-11-23T10:12:37.489Z,6.90
2018-11-23T10:15:28.135Z,6.90
2018-11-23T10:18:10.854Z,7.00
2018-11-23T10:21:00.422Z,7.00
2018-11-23T10:23:42.432Z,7.00
2018-11-23T10:26:31.855Z,7.10
2018-11-23T10:29:14.614Z,7.10
2018-11-23T10:32:04.084Z,7.10
2018-11-23T10:34:46.328Z,7.00
2018-11-23T10:37:35.774Z,7.00
2018-11-23T10:40:21.657Z,7.00
2018-11-23T10:43:11.113Z,7.00
2018-11-23T10:45:53.341Z,7.10
2018-11-23T10:48:42.838Z,7.10
2018-11-23T10:51:25.135Z,7.10
2018-11-23T10:54:14.573Z,7.00
2018-11-23T10:56:57.143Z,7.00
2018-11-23T10:59:46.588Z,7.00
2018-11-23T11:05:54.515Z,7.00
2018-11-23T11:08:37.442Z,7.10
2018-11-23T11:11:26.875Z,7.10
2018-11-23T11:14:08.972Z,7.10
2018-11-23T11:16:58.400Z,7.10
2018-11-23T11:19:40.746Z,7.10
2018-11-23T11:22:30.198Z,7.10
2018-11-23T11:25:12.278Z,7.00
2018-11-23T11:28:01.700Z,7.00
2018-11-23T11:30:43.954Z,7.00
2018-11-23T11:36:36.052Z,7.00
2018-11-23T11:42:26.846Z,6.90
2018-11-23T11:45:10.351Z,6.80
2018-11-23T11:47:59.781Z,6.80
2018-11-23T11:50:41.936Z,6.70
2018-11-23T11:53:31.356Z,6.70
2018-11-23T11:56:13.798Z,6.70
2018-11-23T11:59:03.235Z,6.60
2018-11-23T12:01:45.450Z,6.60
2018-11-23T12:04:34.917Z,6.70
2018-11-23T12:07:17.447Z,6.70
2018-11-23T12:10:27.647Z,6.60
2018-11-23T12:13:09.975Z,6.60
2018-11-23T12:15:59.536Z,6.60
2018-11-23T12:18:42.308Z,6.70
2018-11-23T12:21:31.745Z,6.70
2018-11-23T12:24:13.919Z,6.70
2018-11-23T12:27:03.340Z,6.70
2018-11-23T12:29:45.682Z,6.60
2018-11-23T12:32:35.175Z,6.60
2018-11-23T12:35:18.690Z,6.70
2018-11-23T12:38:08.143Z,6.70
2018-11-23T12:40:48.954Z,6.70
2018-11-23T12:43:38.389Z,6.70
2018-11-23T12:46:20.860Z,6.60
2018-11-23T12:49:10.346Z,6.70
2018-11-23T12:51:52.875Z,6.60
2018-11-23T12:54:42.316Z,6.60
2018-11-23T12:57:24.676Z,6.60
2018-11-23T13:00:33.466Z,6.60
2018-11-23T13:03:15.653Z,6.50
2018-11-23T13:09:08.219Z,6.60
2018-11-23T13:11:50.240Z,6.60
2018-11-23T13:14:39.768Z,6.60
2018-11-23T13:17:22.550Z,6.70
2018-11-23T13:20:13.662Z,6.70
2018-11-23T13:22:56.455Z,6.70
2018-11-23T13:25:45.889Z,6.70
2018-11-23T13:28:27.941Z,6.70
2018-11-23T13:31:17.363Z,6.70
2018-11-23T13:33:57.838Z,6.70
2018-11-23T13:36:47.278Z,6.60
2018-11-23T13:39:29.545Z,6.60
2018-11-23T13:42:18.979Z,6.50
2018-11-23T13:45:01.428Z,6.40
2018-11-23T13:47:54.520Z,6.50
2018-11-23T13:50:36.488Z,6.50
2018-11-23T13:53:27.420Z,6.40
2018-11-23T13:56:10.064Z,6.40
2018-11-23T13:58:59.887Z,6.40
2018-11-23T14:01:42.838Z,6.40
2018-11-23T14:04:32.931Z,6.40
2018-11-23T14:07:15.203Z,6.50
2018-11-23T14:10:06.367Z,6.50
2018-11-23T14:12:50.325Z,6.40
2018-11-23T14:15:39.763Z,6.40
2018-11-23T14:18:21.971Z,6.40
2018-11-23T14:21:11.450Z,6.50
2018-11-23T14:23:53.761Z,6.50
2018-11-23T14:26:43.272Z,6.40
2018-11-23T14:29:25.265Z,6.40
2018-11-23T14:32:14.682Z,6.50
2018-11-23T14:34:57.192Z,6.40
2018-11-23T14:37:47.353Z,6.40
2018-11-23T14:40:29.950Z,6.40
2018-11-23T14:43:19.584Z,6.40
2018-11-23T14:46:05.625Z,6.30
2018-11-23T14:48:55.145Z,6.20
2018-11-23T14:51:37.883Z,6.10
2018-11-23T14:54:27.365Z,6.10
2018-11-23T14:57:09.715Z,6.10
2018-11-23T14:59:59.190Z,6.20
2018-11-23T15:02:42.087Z,6.30
2018-11-23T15:05:31.612Z,6.30
2018-11-23T15:08:14.173Z,6.30
2018-11-23T15:11:03.642Z,6.30
2018-11-23T15:13:46.283Z,6.30
2018-11-23T15:16:36.363Z,6.20
2018-11-23T15:19:18.966Z,6.20
2018-11-23T15:22:08.419Z,6.10
2018-11-23T15:24:50.701Z,6.10
2018-11-23T15:27:41.250Z,6.10
2018-11-23T15:30:30.819Z,6.10
2018-11-23T15:33:20.624Z,6.10
2018-11-23T15:36:03.110Z,6.10
2018-11-23T15:38:52.723Z,6.10
2018-11-23T15:41:34.978Z,6.20
2018-11-23T15:44:24.658Z,6.20
2018-11-23T15:47:07.189Z,6.20
2018-11-23T15:49:56.633Z,6.10
2018-11-23T15:52:38.886Z,6.10
2018-11-23T15:55:38.616Z,6.10
2018-11-23T15:58:19.061Z,6.00
2018-11-23T16:01:08.499Z,6.00
2018-11-23T16:03:51.019Z,6.00
2018-11-23T16:06:40.462Z,6.00
2018-11-23T16:09:22.475Z,6.00
2018-11-23T16:12:11.976Z,6.00
2018-11-23T16:14:54.371Z,6.00
2018-11-23T16:17:43.815Z,6.10
2018-11-23T16:20:27.762Z,6.00
2018-11-23T16:23:18.591Z,6.00
2018-11-23T16:26:00.574Z,6.00
2018-11-23T16:28:50.015Z,6.10
2018-11-23T16:31:31.994Z,6.00
2018-11-23T16:34:21.431Z,6.00
2018-11-23T16:37:03.706Z,6.00
2018-11-23T16:39:53.151Z,6.00
2018-11-23T16:42:35.319Z,6.00
2018-11-23T16:45:29.622Z,5.90
2018-11-23T16:48:12.612Z,5.90
2018-11-23T16:51:02.984Z,6.00
2018-11-23T16:53:45.669Z,6.10
2018-11-23T16:56:35.103Z,6.10
2018-11-23T16:59:17.899Z,6.10
2018-11-23T17:02:07.355Z,6.00
2018-11-23T17:04:47.945Z,6.00
2018-11-23T17:07:37.384Z,6.00
2018-11-23T17:10:20.044Z,5.90
2018-11-23T17:13:09.522Z,5.90
2018-11-23T17:15:52.031Z,6.00
2018-11-23T17:18:41.483Z,5.90
2018-11-23T17:21:23.505Z,6.00
2018-11-23T17:24:12.934Z,5.90
2018-11-23T17:26:55.104Z,6.00
2018-11-23T17:29:44.522Z,5.90
2018-11-23T17:32:27.014Z,5.90
2018-11-23T17:35:16.460Z,5.90
2018-11-23T17:37:59.293Z,5.90
2018-11-23T17:40:48.717Z,5.90
2018-11-23T17:43:31.141Z,5.90
2018-11-23T17:46:20.565Z,6.00
2018-11-23T17:49:03.015Z,5.90
2018-11-23T17:51:52.446Z,5.90
2018-11-23T17:54:34.850Z,5.90
2018-11-23T17:57:24.327Z,5.80
2018-11-23T18:00:08.518Z,5.80
2018-11-23T18:02:58.668Z,5.90
2018-11-23T18:05:41.132Z,5.90
2018-11-23T18:08:30.750Z,5.90
2018-11-23T18:11:13.018Z,5.90
2018-11-23T18:14:05.383Z,5.80
2018-11-23T18:16:48.147Z,5.90
2018-11-23T18:19:37.587Z,5.80
2018-11-23T18:22:20.322Z,5.80
2018-11-23T18:25:12.635Z,5.80
2018-11-23T18:28:13.746Z,5.80
2018-11-23T18:31:03.176Z,5.80
2018-11-23T18:33:45.234Z,5.80
2018-11-23T18:36:34.668Z,5.80
2018-11-23T18:39:16.886Z,5.80
2018-11-23T18:42:06.334Z,5.90
2018-11-23T18:44:49.803Z,6.10
2018-11-23T18:47:39.335Z,6.10
2018-11-23T18:50:21.753Z,6.20
2018-11-23T18:53:11.169Z,6.30
2018-11-23T18:55:53.818Z,6.30
2018-11-23T18:58:43.282Z,6.30
2018-11-23T19:01:25.759Z,6.30
2018-11-23T19:04:15.387Z,6.20
2018-11-23T19:06:57.909Z,6.20
2018-11-23T19:09:47.486Z,6.20
2018-11-23T19:12:29.747Z,6.10
2018-11-23T19:15:25.273Z,6.10
2018-11-23T19:18:02.016Z,6.00
2018-11-23T19:20:51.528Z,6.00
2018-11-23T19:23:34.405Z,5.90
2018-11-23T19:29:25.247Z,5.90
2018-11-23T19:32:07.115Z,5.90
2018-11-23T19:34:56.553Z,5.90
2018-11-23T19:37:39.026Z,5.90
2018-11-23T19:40:28.532Z,5.90
2018-11-23T19:43:11.013Z,5.90
2018-11-23T19:46:00.453Z,5.90
2018-11-23T19:48:42.841Z,5.90
2018-11-23T19:51:32.283Z,5.80
2018-11-23T19:54:14.579Z,5.80
2018-11-23T19:57:04.032Z,5.70
2018-11-23T19:59:46.429Z,5.70
2018-11-23T20:02:35.962Z,5.80
2018-11-23T20:05:18.386Z,5.70
2018-11-23T20:08:08.040Z,5.70
2018-11-23T20:10:50.020Z,5.70
2018-11-23T20:13:39.601Z,5.70
2018-11-23T20:16:21.840Z,5.70
2018-11-23T20:22:12.951Z,5.70
2018-11-23T20:24:55.628Z,5.70
2018-11-23T20:27:45.575Z,5.70
2018-11-23T20:30:27.740Z,5.80
2018-11-23T20:33:17.179Z,5.70
2018-11-23T20:35:59.436Z,5.70
2018-11-23T20:38:49.051Z,5.70
2018-11-23T20:41:31.561Z,5.70
2018-11-23T20:44:21.132Z,5.60
2018-11-23T20:47:03.488Z,5.60
2018-11-23T20:49:52.939Z,5.60
2018-11-23T20:52:35.286Z,5.60
2018-11-23T20:55:24.692Z,5.70
2018-11-23T20:58:06.899Z,5.80
2018-11-23T21:00:56.356Z,5.90
2018-11-23T21:03:38.797Z,5.90
2018-11-23T21:06:28.552Z,5.80
2018-11-23T21:09:10.618Z,5.80
2018-11-23T21:12:00.064Z,5.80
2018-11-23T21:14:42.298Z,5.80
2018-11-23T21:17:31.742Z,5.70
2018-11-23T21:20:14.363Z,5.70
2018-11-23T21:23:03.804Z,5.70
2018-11-23T21:25:45.990Z,5.70
2018-11-23T21:28:35.686Z,5.70
2018-11-23T21:31:18.235Z,5.70
2018-11-23T21:34:07.665Z,5.60
2018-11-23T21:36:50.416Z,5.60
2018-11-23T21:39:40.208Z,5.60
2018-11-23T21:42:22.755Z,5.60
2018-11-23T21:45:13.343Z,5.60
2018-11-23T21:47:59.527Z,5.60
2018-11-23T21:50:48.976Z,5.60
2018-11-23T21:53:31.175Z,5.50
2018-11-23T21:56:20.611Z,5.50
2018-11-23T21:59:03.159Z,5.50
2018-11-23T22:01:52.599Z,5.50
2018-11-23T22:04:35.004Z,5.50
2018-11-23T22:07:24.447Z,5.50
2018-11-23T22:10:26.254Z,5.50
2018-11-23T22:13:15.707Z,5.60
2018-11-23T22:15:57.830Z,5.70
2018-11-23T22:18:47.280Z,5.80
2018-11-23T22:21:29.443Z,5.80
2018-11-23T22:24:18.891Z,5.80
2018-11-23T22:27:01.165Z,5.70
2018-11-23T22:29:50.628Z,5.60
2018-11-23T22:32:32.873Z,5.50
2018-11-23T22:35:22.267Z,5.60
2018-11-23T22:38:04.972Z,5.60
2018-11-23T22:40:54.428Z,5.50
2018-11-23T22:43:36.969Z,5.50
2018-11-23T22:46:26.411Z,5.50
2018-11-23T22:49:09.013Z,5.50
2018-11-23T22:51:58.470Z,5.50
2018-11-23T22:54:40.690Z,5.40
2018-11-23T22:57:30.150Z,5.40
2018-11-23T23:00:25.854Z,5.40
2018-11-23T23:03:15.473Z,5.40
2018-11-23T23:05:57.481Z,5.40
2018-11-23T23:08:46.932Z,5.40
2018-11-23T23:11:29.547Z,5.50
2018-11-23T23:14:19.016Z,5.60
2018-11-23T23:17:01.375Z,5.60
2018-11-23T23:19:50.843Z,5.60
2018-11-23T23:22:33.103Z,5.60
2018-11-23T23:25:22.562Z,5.50
2018-11-23T23:28:04.940Z,5.50
2018-11-23T23:30:54.400Z,5.50
2018-11-23T23:33:34.937Z,5.50
2018-11-23T23:36:24.392Z,5.50
2018-11-23T23:39:07.400Z,5.50
2018-11-23T23:41:56.840Z,5.50
2018-11-23T23:44:39.083Z,5.50
2018-11-23T23:50:30.209Z,5.40
2018-11-23T23:53:12.618Z,5.40
2018-11-23T23:56:02.077Z,5.30
2018-11-23T23:58:44.142Z,5.30
